createdAt,value
2023-01-02T00:00:21.521Z,989.15
2023-01-02T00:01:21.035Z,989.14
2023-01-02T00:02:21.122Z,989.13
2023-01-02T00:03:21.106Z,989.14
2023-01-02T00:04:21.010Z,989.16
2023-01-02T00:05:21.012Z,989.17
2023-01-02T00:06:21.007Z,989.19
2023-01-02T00:07:21.009Z,989.19
2023-01-02T00:08:21.032Z,989.20
2023-01-02T00:09:20.972Z,989.14
2023-01-02T00:10:20.996Z,989.15
2023-01-02T00:11:20.961Z,989.11
2023-01-02T00:12:20.956Z,989.06
2023-01-02T00:13:20.901Z,989.10
2023-01-02T00:14:20.930Z,989.05
2023-01-02T00:15:20.907Z,989.06
2023-01-02T00:16:20.948Z,989.09
2023-01-02T00:17:20.896Z,989.03
2023-01-02T00:18:20.868Z,988.98
2023-01-02T00:19:20.887Z,988.99
2023-01-02T00:20:20.848Z,988.96
2023-01-02T00:21:20.832Z,988.93
2023-01-02T00:22:20.821Z,988.97
2023-01-02T00:23:20.806Z,988.92
2023-01-02T00:24:20.852Z,988.91
2023-01-02T00:25:20.808Z,988.88
2023-01-02T00:26:20.787Z,988.88
2023-01-02T00:27:20.768Z,988.83
2023-01-02T00:28:20.771Z,988.83
2023-01-02T00:29:20.771Z,988.81
2023-01-02T00:30:20.790Z,988.83
2023-01-02T00:31:20.771Z,988.76
2023-01-02T00:32:20.730Z,988.81
2023-01-02T00:33:20.739Z,988.84
2023-01-02T00:34:20.744Z,988.79
2023-01-02T00:35:20.726Z,988.76
2023-01-02T00:36:20.691Z,988.71
2023-01-02T00:37:20.682Z,988.73
2023-01-02T00:38:20.850Z,988.74
2023-01-02T00:39:20.893Z,988.70
2023-01-02T00:40:20.664Z,988.75
2023-01-02T00:41:20.669Z,988.69
2023-01-02T00:42:20.694Z,988.76
2023-01-02T00:43:20.641Z,988.69
2023-01-02T00:44:20.604Z,988.73
2023-01-02T00:45:20.598Z,988.68
2023-01-02T00:46:20.644Z,988.67
2023-01-02T00:47:20.588Z,988.69
2023-01-02T00:48:20.587Z,988.70
2023-01-02T00:49:20.568Z,988.69
2023-01-02T00:50:20.556Z,988.68
2023-01-02T00:51:20.550Z,988.58
2023-01-02T00:52:20.536Z,988.59
2023-01-02T00:53:20.519Z,988.60
2023-01-02T00:54:21.534Z,988.59
2023-01-02T00:55:20.499Z,988.51
2023-01-02T00:56:20.488Z,988.48
2023-01-02T00:57:20.518Z,988.48
2023-01-02T00:58:20.492Z,988.51
2023-01-02T00:59:20.479Z,988.52
2023-01-02T01:00:24.029Z,988.54
2023-01-02T01:01:21.549Z,988.58
2023-01-02T01:02:20.501Z,988.54
2023-01-02T01:03:20.436Z,988.48
2023-01-02T01:04:20.398Z,988.51
2023-01-02T01:05:20.404Z,988.44
2023-01-02T01:06:20.392Z,988.46
2023-01-02T01:07:20.387Z,988.46
2023-01-02T01:08:20.367Z,988.57
2023-01-02T01:09:20.385Z,988.52
2023-01-02T01:10:20.367Z,988.48
2023-01-02T01:11:20.358Z,988.48
2023-01-02T01:12:20.365Z,988.53
2023-01-02T01:13:20.352Z,988.53
2023-01-02T01:14:20.332Z,988.51
2023-01-02T01:15:20.320Z,988.53
2023-01-02T01:16:20.361Z,988.50
2023-01-02T01:17:20.293Z,988.57
2023-01-02T01:18:20.289Z,988.56
2023-01-02T01:19:20.246Z,988.55
2023-01-02T01:20:20.238Z,988.58
2023-01-02T01:21:20.327Z,988.57
2023-01-02T01:22:20.235Z,988.64
2023-01-02T01:23:20.266Z,988.67
2023-01-02T01:24:20.210Z,988.60
2023-01-02T01:25:20.259Z,988.58
2023-01-02T01:26:20.227Z,988.55
2023-01-02T01:27:20.198Z,988.51
2023-01-02T01:28:20.210Z,988.58
2023-01-02T01:29:20.163Z,988.55
2023-01-02T01:30:20.194Z,988.56
2023-01-02T01:31:20.165Z,988.52
2023-01-02T01:32:20.155Z,988.52
2023-01-02T01:33:20.161Z,988.49
2023-01-02T01:34:20.155Z,988.55
2023-01-02T01:35:20.128Z,988.56
2023-01-02T01:36:20.121Z,988.54
2023-01-02T01:37:20.095Z,988.51
2023-01-02T01:38:51.957Z,988.56
2023-01-02T01:39:20.059Z,988.53
2023-01-02T01:40:20.063Z,988.56
2023-01-02T01:41:20.035Z,988.54
2023-01-02T01:42:20.045Z,988.47
2023-01-02T01:43:20.033Z,988.49
2023-01-02T01:44:20.004Z,988.46
2023-01-02T01:45:20.008Z,988.43
2023-01-02T01:46:19.992Z,988.49
2023-01-02T01:47:19.985Z,988.48
2023-01-02T01:48:20.000Z,988.44
2023-01-02T01:49:19.963Z,988.49
2023-01-02T01:50:19.982Z,988.44
2023-01-02T01:51:19.954Z,988.47
2023-01-02T01:52:19.937Z,988.45
2023-01-02T01:53:19.937Z,988.46
2023-01-02T01:54:19.908Z,988.45
2023-01-02T01:55:19.906Z,988.44
2023-01-02T01:56:19.894Z,988.42
2023-01-02T01:57:19.882Z,988.37
2023-01-02T01:58:19.875Z,988.41
2023-01-02T01:59:19.879Z,988.36
2023-01-02T02:00:19.853Z,988.42
2023-01-02T02:01:19.950Z,988.40
2023-01-02T02:02:19.876Z,988.40
2023-01-02T02:03:19.844Z,988.32
2023-01-02T02:04:19.841Z,988.35
2023-01-02T02:05:19.795Z,988.40
2023-01-02T02:06:19.787Z,988.40
2023-01-02T02:07:19.780Z,988.42
2023-01-02T02:08:19.768Z,988.37
2023-01-02T02:09:19.760Z,988.35
2023-01-02T02:10:19.767Z,988.42
2023-01-02T02:11:19.748Z,988.43
2023-01-02T02:12:24.307Z,988.43
2023-01-02T02:13:20.736Z,988.41
2023-01-02T02:14:19.705Z,988.34
2023-01-02T02:15:19.738Z,988.45
2023-01-02T02:16:19.705Z,988.34
2023-01-02T02:17:19.693Z,988.36
2023-01-02T02:18:19.670Z,988.43
2023-01-02T02:19:19.675Z,988.37
2023-01-02T02:20:19.650Z,988.43
2023-01-02T02:21:19.676Z,988.38
2023-01-02T02:22:19.635Z,988.45
2023-01-02T02:23:19.633Z,988.34
2023-01-02T02:24:19.614Z,988.37
2023-01-02T02:25:19.608Z,988.37
2023-01-02T02:26:19.593Z,988.37
2023-01-02T02:27:19.579Z,988.38
2023-01-02T02:28:19.599Z,988.42
2023-01-02T02:29:19.575Z,988.39
2023-01-02T02:30:19.552Z,988.40
2023-01-02T02:31:19.570Z,988.38
2023-01-02T02:32:19.553Z,988.38
2023-01-02T02:33:19.520Z,988.46
2023-01-02T02:34:19.525Z,988.43
2023-01-02T02:35:19.511Z,988.41
2023-01-02T02:36:19.513Z,988.40
2023-01-02T02:37:19.511Z,988.40
2023-01-02T02:38:19.558Z,988.39
2023-01-02T02:39:19.468Z,988.35
2023-01-02T02:40:19.474Z,988.36
2023-01-02T02:41:19.449Z,988.31
2023-01-02T02:42:19.432Z,988.34
2023-01-02T02:43:19.449Z,988.32
2023-01-02T02:44:19.427Z,988.29
2023-01-02T02:45:19.415Z,988.27
2023-01-02T02:46:19.434Z,988.22
2023-01-02T02:47:19.387Z,988.27
2023-01-02T02:48:19.402Z,988.20
2023-01-02T02:49:19.372Z,988.23
2023-01-02T02:50:19.367Z,988.26
2023-01-02T02:51:19.343Z,988.27
2023-01-02T02:52:19.339Z,988.24
2023-01-02T02:53:19.346Z,988.20
2023-01-02T02:54:19.403Z,988.25
2023-01-02T02:55:19.333Z,988.28
2023-01-02T02:56:19.321Z,988.26
2023-01-02T02:57:19.282Z,988.27
2023-01-02T02:58:19.285Z,988.28
2023-01-02T02:59:19.272Z,988.27
2023-01-02T03:00:19.266Z,988.23
2023-01-02T03:01:19.344Z,988.19
2023-01-02T03:02:19.441Z,988.15
2023-01-02T03:03:19.369Z,988.14
2023-01-02T03:04:19.233Z,988.15
2023-01-02T03:05:19.225Z,988.12
2023-01-02T03:06:19.239Z,988.12
2023-01-02T03:07:19.197Z,988.19
2023-01-02T03:08:19.205Z,988.19
2023-01-02T03:09:19.172Z,988.15
2023-01-02T03:10:19.243Z,988.25
2023-01-02T03:11:19.152Z,988.20
2023-01-02T03:12:19.140Z,988.16
2023-01-02T03:13:19.145Z,988.12
2023-01-02T03:14:19.126Z,988.13
2023-01-02T03:15:19.105Z,988.06
2023-01-02T03:16:19.179Z,988.13
2023-01-02T03:17:19.125Z,988.13
2023-01-02T03:18:19.103Z,988.15
2023-01-02T03:19:19.065Z,988.07
2023-01-02T03:20:19.057Z,988.17
2023-01-02T03:21:19.049Z,988.17
2023-01-02T03:22:19.053Z,988.11
2023-01-02T03:23:19.046Z,988.16
2023-01-02T03:24:19.042Z,988.17
2023-01-02T03:25:19.000Z,988.20
2023-01-02T03:26:19.039Z,988.23
2023-01-02T03:27:19.029Z,988.23
2023-01-02T03:28:18.981Z,988.17
2023-01-02T03:29:18.994Z,988.14
2023-01-02T03:30:18.957Z,988.18
2023-01-02T03:31:19.007Z,988.06
2023-01-02T03:32:18.943Z,988.19
2023-01-02T03:33:18.940Z,988.25
2023-01-02T03:34:18.952Z,988.24
2023-01-02T03:35:18.911Z,988.23
2023-01-02T03:36:18.911Z,988.18
2023-01-02T03:37:18.908Z,988.16
2023-01-02T03:38:18.875Z,988.20
2023-01-02T03:39:18.911Z,988.19
2023-01-02T03:40:18.867Z,988.17
2023-01-02T03:41:18.865Z,988.22
2023-01-02T03:42:18.847Z,988.25
2023-01-02T03:43:18.860Z,988.20
2023-01-02T03:44:18.824Z,988.18
2023-01-02T03:45:18.837Z,988.16
2023-01-02T03:46:18.827Z,988.11
2023-01-02T03:47:18.800Z,988.11
2023-01-02T03:48:18.784Z,988.09
2023-01-02T03:49:18.771Z,988.11
2023-01-02T03:50:18.780Z,988.13
2023-01-02T03:51:18.765Z,988.16
2023-01-02T03:52:22.597Z,988.15
2023-01-02T03:53:19.738Z,988.18
2023-01-02T03:54:18.727Z,988.18
2023-01-02T03:55:18.714Z,988.14
2023-01-02T03:56:18.706Z,988.14
2023-01-02T03:57:18.719Z,988.14
2023-01-02T03:58:18.685Z,988.11
2023-01-02T03:59:18.671Z,988.05
2023-01-02T04:00:18.665Z,987.96
2023-01-02T04:01:18.809Z,987.94
2023-01-02T04:02:18.818Z,988.03
2023-01-02T04:03:18.712Z,987.94
2023-01-02T04:04:18.658Z,987.83
2023-01-02T04:05:18.627Z,987.83
2023-01-02T04:06:18.637Z,987.88
2023-01-02T04:07:18.613Z,987.87
2023-01-02T04:08:18.591Z,987.81
2023-01-02T04:09:18.589Z,987.79
2023-01-02T04:10:18.578Z,987.76
2023-01-02T04:11:18.583Z,987.82
2023-01-02T04:12:18.555Z,987.76
2023-01-02T04:13:18.540Z,987.81
2023-01-02T04:14:18.530Z,987.79
2023-01-02T04:15:18.519Z,987.82
2023-01-02T04:16:18.530Z,987.80
2023-01-02T04:17:18.528Z,987.81
2023-01-02T04:18:18.507Z,987.73
2023-01-02T04:19:18.472Z,987.78
2023-01-02T04:20:18.477Z,987.76
2023-01-02T04:21:18.501Z,987.83
2023-01-02T04:22:18.469Z,987.77
2023-01-02T04:23:18.444Z,987.79
2023-01-02T04:24:18.447Z,987.82
2023-01-02T04:25:18.500Z,987.77
2023-01-02T04:26:18.410Z,987.80
2023-01-02T04:27:18.398Z,987.72
2023-01-02T04:28:18.393Z,987.70
2023-01-02T04:29:18.382Z,987.71
2023-01-02T04:30:18.409Z,987.70
2023-01-02T04:31:18.405Z,987.73
2023-01-02T04:32:18.358Z,987.80
2023-01-02T04:33:18.357Z,987.80
2023-01-02T04:34:18.345Z,987.83
2023-01-02T04:35:18.346Z,987.86
2023-01-02T04:36:18.324Z,987.84
2023-01-02T04:37:18.323Z,987.87
2023-01-02T04:38:18.316Z,987.91
2023-01-02T04:39:18.284Z,987.90
2023-01-02T04:40:18.274Z,987.85
2023-01-02T04:41:18.277Z,987.84
2023-01-02T04:42:18.272Z,987.84
2023-01-02T04:43:18.259Z,987.88
2023-01-02T04:44:18.240Z,987.86
2023-01-02T04:45:18.231Z,987.89
2023-01-02T04:46:18.254Z,987.80
2023-01-02T04:47:21.786Z,987.79
2023-01-02T04:48:19.202Z,987.83
2023-01-02T04:49:18.186Z,987.87
2023-01-02T04:50:18.183Z,987.93
2023-01-02T04:51:18.174Z,987.97
2023-01-02T04:52:18.169Z,987.96
2023-01-02T04:53:18.166Z,988.01
2023-01-02T04:54:18.133Z,988.00
2023-01-02T04:55:18.131Z,987.98
2023-01-02T04:56:18.126Z,988.02
2023-01-02T04:57:18.117Z,987.94
2023-01-02T04:58:18.121Z,988.00
2023-01-02T04:59:18.088Z,988.04
2023-01-02T05:00:18.092Z,987.99
2023-01-02T05:01:18.216Z,988.03
2023-01-02T05:02:18.215Z,988.01
2023-01-02T05:03:18.117Z,988.05
2023-01-02T05:04:18.058Z,988.04
2023-01-02T05:05:18.034Z,988.03
2023-01-02T05:06:18.024Z,988.07
2023-01-02T05:07:18.040Z,988.10
2023-01-02T05:08:18.004Z,988.09
2023-01-02T05:09:17.998Z,988.11
2023-01-02T05:10:17.975Z,988.08
2023-01-02T05:11:17.972Z,988.13
2023-01-02T05:12:17.986Z,988.12
2023-01-02T05:13:17.955Z,988.15
2023-01-02T05:14:17.941Z,988.18
2023-01-02T05:15:17.974Z,988.22
2023-01-02T05:16:18.018Z,988.17
2023-01-02T05:17:17.916Z,988.18
2023-01-02T05:18:17.901Z,988.24
2023-01-02T05:19:17.897Z,988.29
2023-01-02T05:20:17.905Z,988.32
2023-01-02T05:21:17.875Z,988.32
2023-01-02T05:22:17.869Z,988.37
2023-01-02T05:23:17.879Z,988.40
2023-01-02T05:24:17.870Z,988.38
2023-01-02T05:25:17.828Z,988.34
2023-01-02T05:26:17.824Z,988.37
2023-01-02T05:27:17.828Z,988.35
2023-01-02T05:28:17.807Z,988.35
2023-01-02T05:29:17.821Z,988.36
2023-01-02T05:30:17.787Z,988.34
2023-01-02T05:31:17.810Z,988.32
2023-01-02T05:32:17.771Z,988.34
2023-01-02T05:33:17.771Z,988.34
2023-01-02T05:34:17.827Z,988.34
2023-01-02T05:35:17.759Z,988.42
2023-01-02T05:36:17.732Z,988.39
2023-01-02T05:37:17.731Z,988.45
2023-01-02T05:38:17.713Z,988.46
2023-01-02T05:39:17.703Z,988.43
2023-01-02T05:40:17.703Z,988.45
2023-01-02T05:41:17.674Z,988.46
2023-01-02T05:42:17.669Z,988.48
2023-01-02T05:43:17.673Z,988.49
2023-01-02T05:44:17.651Z,988.52
2023-01-02T05:45:17.642Z,988.50
2023-01-02T05:46:17.676Z,988.49
2023-01-02T05:47:17.621Z,988.53
2023-01-02T05:48:17.623Z,988.49
2023-01-02T05:49:17.605Z,988.50
2023-01-02T05:50:17.602Z,988.62
2023-01-02T05:51:17.633Z,988.51
2023-01-02T05:52:17.569Z,988.57
2023-01-02T05:53:17.560Z,988.61
2023-01-02T05:54:17.548Z,988.56
2023-01-02T05:55:17.545Z,988.59
2023-01-02T05:56:17.539Z,988.59
2023-01-02T05:57:18.521Z,988.57
2023-01-02T05:58:17.507Z,988.59
2023-01-02T05:59:17.495Z,988.60
2023-01-02T06:00:17.508Z,988.59
2023-01-02T06:01:17.522Z,988.67
2023-01-02T06:02:17.580Z,988.61
2023-01-02T06:03:17.601Z,988.59
2023-01-02T06:04:19.827Z,988.59
2023-01-02T06:05:18.452Z,988.59
2023-01-02T06:06:17.456Z,988.53
2023-01-02T06:07:17.424Z,988.50
2023-01-02T06:08:17.411Z,988.53
2023-01-02T06:09:17.408Z,988.53
2023-01-02T06:10:17.384Z,988.51
2023-01-02T06:11:17.419Z,988.53
2023-01-02T06:12:17.392Z,988.50
2023-01-02T06:13:17.371Z,988.50
2023-01-02T06:14:17.366Z,988.53
2023-01-02T06:15:17.343Z,988.54
2023-01-02T06:16:17.359Z,988.48
2023-01-02T06:17:17.331Z,988.57
2023-01-02T06:18:17.314Z,988.56
2023-01-02T06:19:17.306Z,988.61
2023-01-02T06:20:17.316Z,988.52
2023-01-02T06:21:17.297Z,988.61
2023-01-02T06:22:17.273Z,988.49
2023-01-02T06:23:17.271Z,988.47
2023-01-02T06:24:17.256Z,988.49
2023-01-02T06:25:17.255Z,988.47
2023-01-02T06:26:17.290Z,988.43
2023-01-02T06:27:17.238Z,988.42
2023-01-02T06:28:17.222Z,988.41
2023-01-02T06:29:17.203Z,988.47
2023-01-02T06:30:17.202Z,988.48
2023-01-02T06:31:17.329Z,988.46
2023-01-02T06:32:17.219Z,988.46
2023-01-02T06:33:17.185Z,988.44
2023-01-02T06:34:17.161Z,988.42
2023-01-02T06:35:17.147Z,988.42
2023-01-02T06:36:17.140Z,988.41
2023-01-02T06:37:17.155Z,988.39
2023-01-02T06:38:17.136Z,988.43
2023-01-02T06:39:17.148Z,988.42
2023-01-02T06:40:17.131Z,988.45
2023-01-02T06:41:17.103Z,988.51
2023-01-02T06:42:17.087Z,988.50
2023-01-02T06:43:17.096Z,988.51
2023-01-02T06:44:17.125Z,988.51
2023-01-02T06:45:17.041Z,988.46
2023-01-02T06:46:17.110Z,988.46
2023-01-02T06:47:17.215Z,988.50
2023-01-02T06:48:17.008Z,988.44
2023-01-02T06:49:17.027Z,988.47
2023-01-02T06:50:17.001Z,988.47
2023-01-02T06:51:16.991Z,988.53
2023-01-02T06:52:16.973Z,988.51
2023-01-02T06:53:16.971Z,988.53
2023-01-02T06:54:17.066Z,988.49
2023-01-02T06:55:16.947Z,988.48
2023-01-02T06:56:16.935Z,988.49
2023-01-02T06:57:16.926Z,988.54
2023-01-02T06:58:19.544Z,988.56
2023-01-02T06:59:17.921Z,988.59
2023-01-02T07:00:16.915Z,988.52
2023-01-02T07:01:17.085Z,988.55
2023-01-02T07:02:17.020Z,988.55
2023-01-02T07:03:16.868Z,988.56
2023-01-02T07:04:16.862Z,988.55
2023-01-02T07:05:22.688Z,988.62
2023-01-02T07:06:17.835Z,988.64
2023-01-02T07:07:16.824Z,988.70
2023-01-02T07:08:16.818Z,988.64
2023-01-02T07:09:16.846Z,988.65
2023-01-02T07:10:16.828Z,988.63
2023-01-02T07:11:16.795Z,988.65
2023-01-02T07:12:16.784Z,988.64
2023-01-02T07:13:16.793Z,988.60
2023-01-02T07:14:16.783Z,988.66
2023-01-02T07:15:16.760Z,988.64
2023-01-02T07:16:17.835Z,988.66
2023-01-02T07:17:16.806Z,988.65
2023-01-02T07:18:16.733Z,988.66
2023-01-02T07:19:16.717Z,988.66
2023-01-02T07:20:16.719Z,988.65
2023-01-02T07:21:16.702Z,988.68
2023-01-02T07:22:16.697Z,988.64
2023-01-02T07:23:16.692Z,988.69
2023-01-02T07:24:16.660Z,988.62
2023-01-02T07:25:16.679Z,988.62
2023-01-02T07:26:16.760Z,988.69
2023-01-02T07:27:16.664Z,988.67
2023-01-02T07:28:16.633Z,988.69
2023-01-02T07:29:16.616Z,988.77
2023-01-02T07:30:16.612Z,988.75
2023-01-02T07:31:16.642Z,988.69
2023-01-02T07:32:18.076Z,988.70
2023-01-02T07:33:16.580Z,988.66
2023-01-02T07:34:16.585Z,988.67
2023-01-02T07:35:16.557Z,988.61
2023-01-02T07:36:16.554Z,988.62
2023-01-02T07:37:16.529Z,988.58
2023-01-02T07:38:24.979Z,988.57
2023-01-02T07:39:16.514Z,988.55
2023-01-02T07:40:16.532Z,988.62
2023-01-02T07:41:16.507Z,988.59
2023-01-02T07:42:16.503Z,988.60
2023-01-02T07:43:16.485Z,988.65
2023-01-02T07:44:16.484Z,988.57
2023-01-02T07:45:16.510Z,988.59
2023-01-02T07:46:16.523Z,988.61
2023-01-02T07:47:16.492Z,988.67
2023-01-02T07:48:16.492Z,988.61
2023-01-02T07:49:16.437Z,988.61
2023-01-02T07:50:16.449Z,988.68
2023-01-02T07:51:19.785Z,988.65
2023-01-02T07:52:17.393Z,988.60
2023-01-02T07:53:16.393Z,988.51
2023-01-02T07:54:16.380Z,988.47
2023-01-02T07:55:16.380Z,988.49
2023-01-02T07:56:16.377Z,988.45
2023-01-02T07:57:16.353Z,988.45
2023-01-02T07:58:16.338Z,988.48
2023-01-02T07:59:16.339Z,988.46
2023-01-02T08:00:16.323Z,988.43
2023-01-02T08:01:16.436Z,988.41
2023-01-02T08:02:16.405Z,988.39
2023-01-02T08:03:16.296Z,988.37
2023-01-02T08:04:16.387Z,988.39
2023-01-02T08:05:16.268Z,988.40
2023-01-02T08:06:16.292Z,988.42
2023-01-02T08:07:16.265Z,988.45
2023-01-02T08:08:16.241Z,988.50
2023-01-02T08:09:16.265Z,988.53
2023-01-02T08:10:16.231Z,988.53
2023-01-02T08:11:16.224Z,988.57
2023-01-02T08:12:16.201Z,988.70
2023-01-02T08:13:16.194Z,988.73
2023-01-02T08:14:23.069Z,988.78
2023-01-02T08:15:18.171Z,988.81
2023-01-02T08:16:16.183Z,988.78
2023-01-02T08:17:16.158Z,988.81
2023-01-02T08:18:16.143Z,988.72
2023-01-02T08:19:16.167Z,988.80
2023-01-02T08:20:16.126Z,988.81
2023-01-02T08:21:16.110Z,988.82
2023-01-02T08:22:16.108Z,988.89
2023-01-02T08:23:16.117Z,988.90
2023-01-02T08:24:16.104Z,988.87
2023-01-02T08:25:16.068Z,988.87
2023-01-02T08:26:16.063Z,988.84
2023-01-02T08:27:16.094Z,988.96
2023-01-02T08:28:16.094Z,988.95
2023-01-02T08:29:16.037Z,988.90
2023-01-02T08:30:16.031Z,988.91
2023-01-02T08:31:16.061Z,988.91
2023-01-02T08:32:16.007Z,988.93
2023-01-02T08:33:16.011Z,988.85
2023-01-02T08:34:15.984Z,988.89
2023-01-02T08:35:15.980Z,988.85
2023-01-02T08:36:15.970Z,988.84
2023-01-02T08:37:15.955Z,988.78
2023-01-02T08:38:15.974Z,988.87
2023-01-02T08:39:15.935Z,988.79
2023-01-02T08:40:15.952Z,988.79
2023-01-02T08:41:15.929Z,988.87
2023-01-02T08:42:15.914Z,988.86
2023-01-02T08:43:16.400Z,988.84
2023-01-02T08:44:16.889Z,988.93
2023-01-02T08:45:15.900Z,988.94
2023-01-02T08:46:15.975Z,988.92
2023-01-02T08:47:15.891Z,989.00
2023-01-02T08:48:20.688Z,988.87
2023-01-02T08:49:16.838Z,988.99
2023-01-02T08:50:15.834Z,988.97
2023-01-02T08:51:15.816Z,988.90
2023-01-02T08:52:15.829Z,988.92
2023-01-02T08:53:15.795Z,988.88
2023-01-02T08:54:15.782Z,988.96
2023-01-02T08:55:15.788Z,988.94
2023-01-02T08:56:15.821Z,988.99
2023-01-02T08:57:15.758Z,988.95
2023-01-02T08:58:15.750Z,989.05
2023-01-02T08:59:15.747Z,989.09
2023-01-02T09:00:15.735Z,989.08
2023-01-02T09:01:15.839Z,989.09
2023-01-02T09:02:15.834Z,989.07
2023-01-02T09:03:15.711Z,989.10
2023-01-02T09:04:15.709Z,989.09
2023-01-02T09:05:15.674Z,989.11
2023-01-02T09:06:21.554Z,989.08
2023-01-02T09:07:17.670Z,989.11
2023-01-02T09:08:15.773Z,989.11
2023-01-02T09:09:15.664Z,989.09
2023-01-02T09:10:15.630Z,989.16
2023-01-02T09:11:15.619Z,989.27
2023-01-02T09:12:15.619Z,989.25
2023-01-02T09:13:15.603Z,989.22
2023-01-02T09:14:15.623Z,989.23
2023-01-02T09:15:15.581Z,989.20
2023-01-02T09:16:15.605Z,989.21
2023-01-02T09:17:15.588Z,989.21
2023-01-02T09:18:16.814Z,989.17
2023-01-02T09:19:15.573Z,989.15
2023-01-02T09:20:15.528Z,989.16
2023-01-02T09:21:15.551Z,989.17
2023-01-02T09:22:15.527Z,989.23
2023-01-02T09:23:15.501Z,989.30
2023-01-02T09:24:15.511Z,989.31
2023-01-02T09:25:18.990Z,989.36
2023-01-02T09:26:15.517Z,989.29
2023-01-02T09:27:15.499Z,989.33
2023-01-02T09:28:15.513Z,989.31
2023-01-02T09:29:15.474Z,989.36
2023-01-02T09:30:15.472Z,989.38
2023-01-02T09:31:15.454Z,989.36
2023-01-02T09:32:15.419Z,989.45
2023-01-02T09:33:15.430Z,989.39
2023-01-02T09:34:15.401Z,989.48
2023-01-02T09:35:15.387Z,989.43
2023-01-02T09:36:16.396Z,989.40
2023-01-02T09:37:15.392Z,989.40
2023-01-02T09:38:15.361Z,989.33
2023-01-02T09:39:15.347Z,989.34
2023-01-02T09:40:15.366Z,989.32
2023-01-02T09:41:15.335Z,989.37
2023-01-02T09:42:15.349Z,989.28
2023-01-02T09:43:15.312Z,989.31
2023-01-02T09:44:15.295Z,989.24
2023-01-02T09:45:15.291Z,989.21
2023-01-02T09:46:15.331Z,989.33
2023-01-02T09:47:15.290Z,989.35
2023-01-02T09:48:15.291Z,989.41
2023-01-02T09:49:15.279Z,989.39
2023-01-02T09:50:15.250Z,989.41
2023-01-02T09:51:15.243Z,989.38
2023-01-02T09:52:15.212Z,989.38
2023-01-02T09:53:15.214Z,989.39
2023-01-02T09:54:15.240Z,989.50
2023-01-02T09:55:15.197Z,989.49
2023-01-02T09:56:21.064Z,989.50
2023-01-02T09:57:17.183Z,989.44
2023-01-02T09:58:15.154Z,989.55
2023-01-02T09:59:15.158Z,989.43
2023-01-02T10:00:15.165Z,989.56
2023-01-02T10:01:15.171Z,989.49
2023-01-02T10:02:15.144Z,989.54
2023-01-02T10:03:15.289Z,989.55
2023-01-02T10:04:15.165Z,989.57
2023-01-02T10:05:15.111Z,989.60
2023-01-02T10:06:15.163Z,989.47
2023-01-02T10:07:15.117Z,989.46
2023-01-02T10:08:15.094Z,989.48
2023-01-02T10:09:15.060Z,989.39
2023-01-02T10:10:15.052Z,989.43
2023-01-02T10:11:15.070Z,989.52
2023-01-02T10:12:15.040Z,989.48
2023-01-02T10:13:15.050Z,989.52
2023-01-02T10:14:19.747Z,989.56
2023-01-02T10:15:17.004Z,989.54
2023-01-02T10:16:16.030Z,989.52
2023-01-02T10:17:14.980Z,989.54
2023-01-02T10:18:14.971Z,989.55
2023-01-02T10:19:14.995Z,989.50
2023-01-02T10:20:20.423Z,989.53
2023-01-02T10:21:16.953Z,989.45
2023-01-02T10:22:14.937Z,989.50
2023-01-02T10:23:14.938Z,989.54
2023-01-02T10:24:14.929Z,989.47
2023-01-02T10:25:14.904Z,989.52
2023-01-02T10:26:14.898Z,989.53
2023-01-02T10:27:14.901Z,989.61
2023-01-02T10:28:14.866Z,989.54
2023-01-02T10:29:14.877Z,989.55
2023-01-02T10:30:14.892Z,989.59
2023-01-02T10:31:14.885Z,989.66
2023-01-02T10:32:14.842Z,989.64
2023-01-02T10:33:14.832Z,989.60
2023-01-02T10:34:14.825Z,989.72
2023-01-02T10:35:14.846Z,989.65
2023-01-02T10:36:14.793Z,989.75
2023-01-02T10:37:14.812Z,989.67
2023-01-02T10:38:14.791Z,989.69
2023-01-02T10:39:14.772Z,989.72
2023-01-02T10:40:14.784Z,989.62
2023-01-02T10:41:14.768Z,989.65
2023-01-02T10:42:14.785Z,989.64
2023-01-02T10:43:14.791Z,989.60
2023-01-02T10:44:14.727Z,989.68
2023-01-02T10:45:14.723Z,989.69
2023-01-02T10:46:14.731Z,989.64
2023-01-02T10:47:14.711Z,989.68
2023-01-02T10:48:14.718Z,989.71
2023-01-02T10:49:14.684Z,989.65
2023-01-02T10:50:14.683Z,989.70
2023-01-02T10:51:14.702Z,989.68
2023-01-02T10:52:14.791Z,989.73
2023-01-02T10:53:14.652Z,989.71
2023-01-02T10:54:14.657Z,989.77
2023-01-02T10:55:14.629Z,989.71
2023-01-02T10:56:14.657Z,989.74
2023-01-02T10:57:14.604Z,989.66
2023-01-02T10:58:14.595Z,989.78
2023-01-02T10:59:14.606Z,989.79
2023-01-02T11:00:14.595Z,989.84
2023-01-02T11:01:14.715Z,989.90
2023-01-02T11:02:14.703Z,989.87
2023-01-02T11:03:14.531Z,989.86
2023-01-02T11:04:14.542Z,989.88
2023-01-02T11:05:14.546Z,989.89
2023-01-02T11:06:26.049Z,989.86
2023-01-02T11:07:16.507Z,989.86
2023-01-02T11:08:14.503Z,989.83
2023-01-02T11:09:14.505Z,989.82
2023-01-02T11:10:14.507Z,989.81
2023-01-02T11:11:14.474Z,989.83
2023-01-02T11:12:14.532Z,989.86
2023-01-02T11:13:14.507Z,989.84
2023-01-02T11:14:14.444Z,989.92
2023-01-02T11:15:14.443Z,989.88
2023-01-02T11:16:14.480Z,989.95
2023-01-02T11:17:14.418Z,989.89
2023-01-02T11:18:14.402Z,989.90
2023-01-02T11:19:14.401Z,989.88
2023-01-02T11:20:14.375Z,989.93
2023-01-02T11:21:14.397Z,989.84
2023-01-02T11:22:14.385Z,989.85
2023-01-02T11:23:14.350Z,989.85
2023-01-02T11:24:14.388Z,989.91
2023-01-02T11:25:14.328Z,989.78
2023-01-02T11:26:14.321Z,989.77
2023-01-02T11:27:14.320Z,989.90
2023-01-02T11:28:14.297Z,989.89
2023-01-02T11:29:14.310Z,989.74
2023-01-02T11:30:14.362Z,989.85
2023-01-02T11:31:14.302Z,989.80
2023-01-02T11:32:14.254Z,989.86
2023-01-02T11:33:14.259Z,989.79
2023-01-02T11:34:14.232Z,989.84
2023-01-02T11:35:14.239Z,989.78
2023-01-02T11:36:14.234Z,989.77
2023-01-02T11:37:14.223Z,989.68
2023-01-02T11:38:14.207Z,989.69
2023-01-02T11:39:14.197Z,989.65
2023-01-02T11:40:14.197Z,989.76
2023-01-02T11:41:14.163Z,989.67
2023-01-02T11:42:14.164Z,989.76
2023-01-02T11:43:14.159Z,989.71
2023-01-02T11:44:20.207Z,989.78
2023-01-02T11:45:15.133Z,989.81
2023-01-02T11:46:14.175Z,989.92
2023-01-02T11:47:14.149Z,989.82
2023-01-02T11:48:14.093Z,989.74
2023-01-02T11:49:14.103Z,989.74
2023-01-02T11:50:14.091Z,989.83
2023-01-02T11:51:17.506Z,989.85
2023-01-02T11:52:15.078Z,989.82
2023-01-02T11:53:14.120Z,989.80
2023-01-02T11:54:14.037Z,989.82
2023-01-02T11:55:14.110Z,989.81
2023-01-02T11:56:14.022Z,989.79
2023-01-02T11:57:18.771Z,989.86
2023-01-02T11:58:14.998Z,989.86
2023-01-02T11:59:13.980Z,989.90
2023-01-02T12:00:13.991Z,989.92
2023-01-02T12:01:13.979Z,990.01
2023-01-02T12:02:14.167Z,989.95
2023-01-02T12:03:18.303Z,989.93
2023-01-02T12:04:15.005Z,989.96
2023-01-02T12:05:13.940Z,989.95
2023-01-02T12:06:13.931Z,989.96
2023-01-02T12:07:13.911Z,989.88
2023-01-02T12:08:13.904Z,989.87
2023-01-02T12:09:13.922Z,989.93
2023-01-02T12:10:13.878Z,989.84
2023-01-02T12:11:13.888Z,989.94
2023-01-02T12:12:13.872Z,989.88
2023-01-02T12:13:13.862Z,989.93
2023-01-02T12:14:13.845Z,989.90
2023-01-02T12:15:13.874Z,989.83
2023-01-02T12:16:13.845Z,989.87
2023-01-02T12:17:13.824Z,989.91
2023-01-02T12:18:13.810Z,989.92
2023-01-02T12:19:13.797Z,989.88
2023-01-02T12:20:13.840Z,989.93
2023-01-02T12:21:13.811Z,989.92
2023-01-02T12:22:13.775Z,989.92
2023-01-02T12:23:13.763Z,989.95
2023-01-02T12:24:13.757Z,989.94
2023-01-02T12:25:13.748Z,989.89
2023-01-02T12:26:13.762Z,989.91
2023-01-02T12:27:13.730Z,989.91
2023-01-02T12:28:13.716Z,989.95